createdAt,value
2018-10-18T00:01:10.092Z,101463.48
2018-10-18T00:03:38.570Z,101459.97
2018-10-18T00:06:07.177Z,101464.55
2018-10-18T00:08:36.228Z,101465.13
2018-10-18T00:11:04.820Z,101458.55
2018-10-18T00:13:33.380Z,101462.89
2018-10-18T00:16:02.074Z,101458.55
2018-10-18T00:18:30.648Z,101457.33
2018-10-18T00:20:59.124Z,101468.48
2018-10-18T00:23:27.836Z,101468.66
2018-10-18T00:25:56.345Z,101471.70
2018-10-18T00:28:24.853Z,101472.62
2018-10-18T00:30:53.443Z,101469.14
2018-10-18T00:33:22.034Z,101470.04
2018-10-18T00:35:50.617Z,101478.30
2018-10-18T00:38:19.123Z,101480.07
2018-10-18T00:40:47.544Z,101478.86
2018-10-18T00:43:17.207Z,101478.94
2018-10-18T00:45:45.651Z,101479.84
2018-10-18T00:48:14.299Z,101479.91
2018-10-18T00:50:43.462Z,101480.75
2018-10-18T00:53:12.043Z,101486.97
2018-10-18T00:55:40.873Z,101488.23
2018-10-18T00:58:09.505Z,101487.31
2018-10-18T01:00:38.422Z,101492.56
2018-10-18T01:03:07.073Z,101499.00
2018-10-18T01:05:35.700Z,101491.33
2018-10-18T01:08:04.635Z,101502.35
2018-10-18T01:10:33.188Z,101495.36
2018-10-18T01:13:01.848Z,101493.56
2018-10-18T01:15:30.371Z,101492.73
2018-10-18T01:17:58.853Z,101494.13
2018-10-18T01:20:27.408Z,101496.41
2018-10-18T01:22:55.858Z,101497.27
2018-10-18T01:25:24.346Z,101496.28
2018-10-18T01:27:53.485Z,101491.02
2018-10-18T01:30:21.942Z,101496.69
2018-10-18T01:32:50.485Z,101498.00
2018-10-18T01:35:19.356Z,101503.66
2018-10-18T01:37:49.508Z,101501.78
2018-10-18T01:40:18.159Z,101500.41
2018-10-18T01:42:46.755Z,101503.55
2018-10-18T01:45:15.264Z,101506.94
2018-10-18T01:47:43.756Z,101499.42
2018-10-18T01:50:12.454Z,101501.57
2018-10-18T01:52:41.603Z,101499.27
2018-10-18T01:55:10.157Z,101501.84
2018-10-18T01:57:38.673Z,101500.92
2018-10-18T02:00:08.375Z,101493.52
2018-10-18T02:02:36.883Z,101496.78
2018-10-18T02:05:05.530Z,101493.73
2018-10-18T02:07:34.113Z,101495.39
2018-10-18T02:10:02.709Z,101491.44
2018-10-18T02:12:31.260Z,101495.75
2018-10-18T02:14:59.677Z,101491.44
2018-10-18T02:17:29.113Z,101504.62
2018-10-18T02:19:57.832Z,101506.77
2018-10-18T02:22:26.328Z,101506.40
2018-10-18T02:24:55.015Z,101509.03
2018-10-18T02:27:24.487Z,101506.82
2018-10-18T02:29:53.274Z,101506.19
2018-10-18T02:32:22.466Z,101510.45
2018-10-18T02:34:50.926Z,101509.07
2018-10-18T02:37:19.686Z,101512.94
2018-10-18T02:39:48.299Z,101508.45
2018-10-18T02:42:17.090Z,101512.40
2018-10-18T02:44:45.559Z,101510.63
2018-10-18T02:47:14.181Z,101507.02
2018-10-18T02:49:42.886Z,101511.06
2018-10-18T02:52:11.820Z,101505.03
2018-10-18T02:54:40.410Z,101504.66
2018-10-18T02:57:08.952Z,101509.92
2018-10-18T02:59:37.440Z,101513.09
2018-10-18T03:02:06.770Z,101509.22
2018-10-18T03:04:35.252Z,101506.95
2018-10-18T03:07:04.903Z,101512.19
2018-10-18T03:09:34.261Z,101511.22
2018-10-18T03:12:02.774Z,101512.03
2018-10-18T03:14:31.401Z,101515.56
2018-10-18T03:17:00.085Z,101514.28
2018-10-18T03:19:28.686Z,101513.88
2018-10-18T03:21:57.267Z,101518.30
2018-10-18T03:24:25.745Z,101522.67
2018-10-18T03:26:54.208Z,101526.19
2018-10-18T03:29:22.725Z,101522.72
2018-10-18T03:31:51.460Z,101524.87
2018-10-18T03:34:20.644Z,101527.38
2018-10-18T03:36:49.224Z,101532.61
2018-10-18T03:39:17.733Z,101533.94
2018-10-18T03:41:46.981Z,101535.67
2018-10-18T03:44:15.592Z,101529.91
2018-10-18T03:46:44.077Z,101534.17
2018-10-18T03:49:12.666Z,101536.77
2018-10-18T03:51:41.101Z,101537.53
2018-10-18T03:54:09.763Z,101533.48
2018-10-18T03:56:38.214Z,101537.78
2018-10-18T03:59:07.157Z,101540.81
2018-10-18T04:01:35.622Z,101538.59
2018-10-18T04:04:04.093Z,101538.66
2018-10-18T04:06:32.676Z,101550.62
2018-10-18T04:09:01.265Z,101545.34
2018-10-18T04:11:29.771Z,101548.88
2018-10-18T04:13:58.211Z,101552.35
2018-10-18T04:16:28.252Z,101553.09
2018-10-18T04:18:56.820Z,101542.89
2018-10-18T04:21:27.002Z,101552.19
2018-10-18T04:23:55.529Z,101551.34
2018-10-18T04:26:23.954Z,101550.45
2018-10-18T04:28:52.706Z,101547.34
2018-10-18T04:31:21.242Z,101553.44
2018-10-18T04:33:49.730Z,101550.30
2018-10-18T04:36:18.293Z,101561.33
2018-10-18T04:38:46.750Z,101564.43
2018-10-18T04:41:15.975Z,101566.67
2018-10-18T04:43:44.690Z,101558.69
2018-10-18T04:46:13.199Z,101557.72
2018-10-18T04:48:42.148Z,101557.30
2018-10-18T04:51:10.643Z,101569.63
2018-10-18T04:53:39.179Z,101571.87
2018-10-18T04:56:07.661Z,101563.95
2018-10-18T04:58:36.168Z,101566.58
2018-10-18T05:01:04.624Z,101577.61
2018-10-18T05:03:34.097Z,101578.46
2018-10-18T05:06:03.987Z,101578.02
2018-10-18T05:08:32.473Z,101581.98
2018-10-18T05:11:01.174Z,101575.83
2018-10-18T05:13:29.738Z,101581.49
2018-10-18T05:15:59.047Z,101581.02
2018-10-18T05:18:27.520Z,101579.45
2018-10-18T05:20:56.384Z,101580.81
2018-10-18T05:23:25.096Z,101576.80
2018-10-18T05:25:53.589Z,101582.50
2018-10-18T05:28:22.304Z,101582.08
2018-10-18T05:30:50.855Z,101581.60
2018-10-18T05:33:19.326Z,101585.97
2018-10-18T05:35:47.960Z,101584.72
2018-10-18T05:38:17.038Z,101591.72
2018-10-18T05:40:45.965Z,101596.49
2018-10-18T05:43:14.511Z,101599.11
2018-10-18T05:45:42.905Z,101600.80
2018-10-18T05:48:11.830Z,101605.28
2018-10-18T05:50:40.252Z,101605.38
2018-10-18T05:53:08.972Z,101609.33
2018-10-18T05:55:37.327Z,101610.66
2018-10-18T05:58:06.095Z,101608.91
2018-10-18T06:00:34.634Z,101603.75
2018-10-18T06:03:03.187Z,101603.75
2018-10-18T06:05:31.640Z,101610.88
2018-10-18T06:08:00.200Z,101607.94
2018-10-18T06:10:39.809Z,101610.63
2018-10-18T06:13:08.522Z,101611.16
2018-10-18T06:15:37.572Z,101609.44
2018-10-18T06:18:06.447Z,101617.73
2018-10-18T06:20:35.004Z,101617.77
2018-10-18T06:23:03.619Z,101614.34
2018-10-18T06:25:32.026Z,101612.22
2018-10-18T06:28:00.997Z,101619.23
2018-10-18T06:30:29.513Z,101621.38
2018-10-18T06:32:57.971Z,101624.34
2018-10-18T06:35:26.569Z,101627.38
2018-10-18T06:37:55.129Z,101625.14
2018-10-18T06:40:23.729Z,101635.19
2018-10-18T06:42:52.525Z,101631.57
2018-10-18T06:45:21.202Z,101633.36
2018-10-18T06:47:49.849Z,101631.55
2018-10-18T06:50:19.795Z,101632.80
2018-10-18T06:52:48.463Z,101634.51
2018-10-18T06:55:17.288Z,101634.80
2018-10-18T06:57:46.413Z,101636.53
2018-10-18T07:00:20.741Z,101645.73
2018-10-18T07:02:50.130Z,101650.59
2018-10-18T07:05:18.863Z,101654.13
2018-10-18T07:07:47.499Z,101647.47
2018-10-18T07:10:16.713Z,101649.76
2018-10-18T07:12:49.497Z,101644.84
2018-10-18T07:15:19.050Z,101648.30
2018-10-18T07:17:48.578Z,101647.80
2018-10-18T07:20:18.347Z,101653.50
2018-10-18T07:22:47.287Z,101660.17
2018-10-18T07:25:18.584Z,101660.73
2018-10-18T07:27:47.124Z,101660.54
2018-10-18T07:30:16.314Z,101665.39
2018-10-18T07:32:45.223Z,101663.17
2018-10-18T07:35:15.093Z,101665.68
2018-10-18T07:37:43.680Z,101667.39
2018-10-18T07:40:15.507Z,101668.14
2018-10-18T07:42:44.673Z,101671.63
2018-10-18T07:45:13.919Z,101671.30
2018-10-18T07:47:43.049Z,101673.92
2018-10-18T07:50:12.165Z,101673.02
2018-10-18T07:52:40.731Z,101680.63
2018-10-18T07:57:47.858Z,101693.90
2018-10-18T08:00:16.828Z,101691.81
2018-10-18T08:02:46.030Z,101692.30
2018-10-18T08:05:15.150Z,101693.48
2018-10-18T08:07:43.934Z,101696.45
2018-10-18T08:10:19.793Z,101690.27
2018-10-18T08:12:48.276Z,101691.59
2018-10-18T08:15:17.543Z,101691.13
2018-10-18T08:17:46.524Z,101688.56
2018-10-18T08:20:15.414Z,101699.18
2018-10-18T08:22:44.494Z,101700.23
2018-10-18T08:25:13.057Z,101706.31
2018-10-18T08:27:41.582Z,101709.30
2018-10-18T08:30:11.985Z,101710.19
2018-10-18T08:32:40.827Z,101711.50
2018-10-18T08:35:10.500Z,101715.32
2018-10-18T08:37:39.556Z,101710.94
2018-10-18T08:40:14.869Z,101715.38
2018-10-18T08:42:43.574Z,101710.53
2018-10-18T08:45:12.625Z,101713.94
2018-10-18T08:47:41.828Z,101717.05
2018-10-18T08:50:12.192Z,101721.09
2018-10-18T08:52:40.966Z,101717.69
2018-10-18T08:55:12.302Z,101723.31
2018-10-18T08:57:41.112Z,101714.36
2018-10-18T09:00:11.373Z,101717.94
2018-10-18T09:02:40.841Z,101716.98
2018-10-18T09:05:09.754Z,101719.12
2018-10-18T09:07:38.601Z,101713.37
2018-10-18T09:10:08.007Z,101710.99
2018-10-18T09:12:36.941Z,101712.52
2018-10-18T09:15:07.505Z,101717.27
2018-10-18T09:17:37.337Z,101714.59
2018-10-18T09:25:00.407Z,101724.30
2018-10-18T09:27:29.640Z,101734.66
2018-10-18T09:29:58.333Z,101723.88
2018-10-18T09:32:26.985Z,101723.96
2018-10-18T09:34:55.469Z,101722.99
2018-10-18T09:37:24.298Z,101721.74
2018-10-18T09:39:53.689Z,101719.89
2018-10-18T09:42:23.135Z,101722.78
2018-10-18T09:44:51.596Z,101723.59
2018-10-18T09:47:20.181Z,101723.28
2018-10-18T09:49:48.893Z,101723.59
2018-10-18T09:52:17.856Z,101722.61
2018-10-18T09:54:46.631Z,101735.09
2018-10-18T09:57:15.217Z,101734.94
2018-10-18T09:59:47.824Z,101729.94
2018-10-18T10:02:22.175Z,101734.68
2018-10-18T10:04:50.623Z,101730.24
2018-10-18T10:07:19.354Z,101740.50
2018-10-18T10:09:47.868Z,101740.61
2018-10-18T10:12:17.256Z,101739.36
2018-10-18T10:14:45.974Z,101745.84
2018-10-18T10:17:14.560Z,101739.36
2018-10-18T10:19:43.948Z,101735.75
2018-10-18T10:22:12.454Z,101733.13
2018-10-18T16:46:03.753Z,101729.22
2018-10-18T16:48:32.186Z,101731.12
2018-10-18T16:51:01.734Z,101736.41
2018-10-18T16:53:30.528Z,101739.13
2018-10-18T16:55:59.293Z,101734.66
2018-10-18T16:58:28.318Z,101735.59
2018-10-18T17:00:56.813Z,101740.14
2018-10-18T17:03:25.508Z,101734.79
2018-10-18T17:05:55.218Z,101739.95
2018-10-18T17:08:23.850Z,101742.37
2018-10-18T17:10:52.722Z,101742.84
2018-10-18T17:13:21.648Z,101747.23
2018-10-18T17:15:50.198Z,101740.71
2018-10-18T17:18:18.794Z,101745.00
2018-10-18T17:20:47.459Z,101743.17
2018-10-18T17:23:16.064Z,101740.45
2018-10-18T17:25:44.725Z,101735.70
2018-10-18T17:28:13.452Z,101738.33
2018-10-18T17:30:42.222Z,101738.75
2018-10-18T17:33:11.528Z,101742.45
2018-10-18T17:35:40.264Z,101744.41
2018-10-18T17:38:09.129Z,101739.98
2018-10-18T17:40:38.031Z,101740.36
2018-10-18T17:43:06.615Z,101748.55
2018-10-18T17:45:35.534Z,101742.76
2018-10-18T17:48:04.550Z,101752.42
2018-10-18T17:50:33.144Z,101752.42
2018-10-18T17:53:01.999Z,101756.41
2018-10-18T17:55:31.302Z,101757.69
2018-10-18T17:58:00.714Z,101757.20
2018-10-18T18:00:29.214Z,101760.66
2018-10-18T18:02:57.852Z,101758.05
2018-10-18T18:05:26.578Z,101755.48
2018-10-18T18:07:55.175Z,101748.87
2018-10-18T18:10:24.476Z,101758.13
2018-10-18T18:12:53.167Z,101753.27
2018-10-18T18:32:57.330Z,101765.60
2018-10-18T18:35:26.348Z,101766.13
2018-10-18T18:38:01.758Z,101767.03
2018-10-18T18:40:31.578Z,101765.27
2018-10-18T18:43:00.511Z,101770.98
2018-10-18T18:45:34.851Z,101773.78
2018-10-18T18:48:04.690Z,101775.09
2018-10-18T18:50:34.080Z,101772.94
2018-10-18T18:53:03.264Z,101776.02
2018-10-18T18:55:31.941Z,101779.97
2018-10-18T18:58:01.247Z,101782.58
2018-10-18T19:00:30.238Z,101781.63
2018-10-18T19:02:59.018Z,101790.83
2018-10-18T19:05:29.289Z,101783.34
2018-10-18T19:07:58.281Z,101786.87
2018-10-18T19:10:27.108Z,101789.96
2018-10-18T19:12:55.692Z,101793.91
2018-10-18T19:15:24.576Z,101791.27
2018-10-18T19:17:53.499Z,101794.78
2018-10-18T19:20:22.462Z,101792.56
2018-10-18T19:22:51.373Z,101799.16
2018-10-18T19:25:20.057Z,101796.55
2018-10-18T19:27:48.736Z,101807.58
2018-10-18T19:30:18.209Z,101808.06
2018-10-18T19:32:47.471Z,101805.88
2018-10-18T19:35:16.435Z,101811.20
2018-10-18T19:37:48.488Z,101807.26
2018-10-18T19:40:17.931Z,101809.49
2018-10-18T19:42:46.552Z,101811.30
2018-10-18T19:45:15.232Z,101817.52
2018-10-18T19:47:44.005Z,101817.97
2018-10-18T19:50:13.230Z,101817.60
2018-10-18T19:52:42.711Z,101819.41
2018-10-18T19:55:12.536Z,101815.88
2018-10-18T19:57:41.477Z,101818.95
2018-10-18T20:00:10.676Z,101821.64
2018-10-18T20:02:39.327Z,101825.19
2018-10-18T20:05:08.586Z,101826.49
2018-10-18T20:07:38.313Z,101829.50
2018-10-18T20:10:08.774Z,101833.86
2018-10-18T20:12:37.439Z,101832.19
2018-10-18T20:15:07.818Z,101837.94
2018-10-18T20:17:36.469Z,101838.80
2018-10-18T20:20:06.052Z,101847.20
2018-10-18T20:22:39.600Z,101846.00
2018-10-18T20:25:09.225Z,101844.83
2018-10-18T20:27:38.215Z,101848.84
2018-10-18T20:30:11.285Z,101847.16
2018-10-18T20:32:39.922Z,101845.05
2018-10-18T20:35:09.293Z,101844.75
2018-10-18T20:37:38.175Z,101852.29
2018-10-18T20:40:09.148Z,101847.56
2018-10-18T20:42:37.712Z,101840.48
2018-10-18T20:45:07.916Z,101840.02
2018-10-18T20:47:37.101Z,101836.91
2018-10-18T20:50:06.069Z,101838.75
2018-10-18T20:52:35.310Z,101838.77
2018-10-18T20:55:04.036Z,101845.34
2018-10-18T20:57:35.824Z,101838.28
2018-10-18T21:00:04.898Z,101832.11
2018-10-18T21:02:34.342Z,101832.95
2018-10-18T21:05:03.151Z,101829.90
2018-10-18T21:07:32.115Z,101834.73
2018-10-18T21:10:01.326Z,101834.31
2018-10-18T21:12:30.265Z,101834.73
2018-10-18T21:14:59.077Z,101833.02
2018-10-18T21:17:27.664Z,101830.32
2018-10-18T21:19:57.095Z,101830.31
2018-10-18T21:22:26.143Z,101829.05
2018-10-18T21:24:56.997Z,101822.94
2018-10-18T21:27:25.660Z,101815.03
2018-10-18T21:29:59.769Z,101824.25
2018-10-18T21:32:28.396Z,101816.84
2018-10-18T21:34:57.051Z,101813.80
2018-10-18T21:37:25.648Z,101815.55
2018-10-18T21:39:54.302Z,101816.84
2018-10-18T21:42:22.962Z,101810.73
2018-10-18T21:44:52.528Z,101817.27
2018-10-18T21:47:21.420Z,101811.10
2018-10-18T21:49:50.137Z,101810.63
2018-10-18T21:52:19.340Z,101815.45
2018-10-18T21:54:47.937Z,101816.41
2018-10-18T21:57:16.517Z,101815.53
2018-10-18T21:59:45.267Z,101814.67
2018-10-18T22:02:14.622Z,101816.06
2018-10-18T22:04:43.352Z,101816.59
2018-10-18T22:07:12.121Z,101812.22
2018-10-18T22:09:40.769Z,101813.52
2018-10-18T22:12:09.689Z,101808.66
2018-10-18T22:14:38.294Z,101812.55
2018-10-18T22:17:07.071Z,101811.27
2018-10-18T22:19:35.513Z,101809.05
2018-10-18T22:22:04.084Z,101806.00
2018-10-18T22:24:32.731Z,101806.85
2018-10-18T22:27:01.304Z,101805.10
2018-10-18T22:29:32.867Z,101797.22
2018-10-18T22:32:01.460Z,101793.29
2018-10-18T22:34:30.113Z,101796.83
2018-10-18T22:36:58.610Z,101793.34
2018-10-18T22:39:27.190Z,101796.45
2018-10-18T22:41:56.711Z,101788.09
2018-10-18T22:44:25.398Z,101790.29
2018-10-18T22:46:54.104Z,101788.09
2018-10-18T22:49:22.923Z,101791.61
2018-10-18T22:51:52.133Z,101794.25
2018-10-18T22:54:21.451Z,101790.79
2018-10-18T22:56:50.090Z,101790.84
2018-10-18T22:59:18.766Z,101789.47
2018-10-18T23:01:47.312Z,101786.42
2018-10-18T23:04:16.034Z,101782.45
2018-10-18T23:06:44.849Z,101784.20
2018-10-18T23:09:13.838Z,101789.89
2018-10-18T23:11:42.475Z,101793.90
2018-10-18T23:14:11.485Z,101793.97
2018-10-18T23:16:40.463Z,101797.07
2018-10-18T23:19:10.045Z,101798.86
2018-10-18T23:21:38.546Z,101790.54
2018-10-18T23:24:07.435Z,101797.01
2018-10-18T23:26:36.220Z,101796.22
2018-10-18T23:29:05.291Z,101797.13
2018-10-18T23:31:33.841Z,101797.55
2018-10-18T23:34:02.389Z,101793.59
2018-10-18T23:36:31.289Z,101789.64
2018-10-18T23:38:59.899Z,101785.22
2018-10-18T23:41:28.641Z,101781.26
2018-10-18T23:43:57.317Z,101780.42
2018-10-18T23:46:25.934Z,101779.11
2018-10-18T23:48:54.438Z,101777.31
2018-10-18T23:51:23.466Z,101766.00
2018-10-18T23:53:52.121Z,101769.55
2018-10-18T23:56:20.652Z,101774.39
2018-10-18T23:58:49.300Z,101771.28
